createdAt,value
2024-02-07T00:00:43.944Z,1132.00
2024-02-07T00:01:44.063Z,1126.00
2024-02-07T00:02:43.918Z,1122.00
2024-02-07T00:03:43.991Z,1126.00
2024-02-07T00:04:44.135Z,1117.00
2024-02-07T00:05:43.969Z,1116.00
2024-02-07T00:06:43.864Z,1122.00
2024-02-07T00:07:43.900Z,1122.00
2024-02-07T00:08:43.852Z,1125.00
2024-02-07T00:09:43.837Z,1129.00
2024-02-07T00:10:43.908Z,1132.00
2024-02-07T00:11:43.857Z,1128.00
2024-02-07T00:12:43.873Z,1136.00
2024-02-07T00:13:43.906Z,1141.00
2024-02-07T00:14:43.897Z,1138.00
2024-02-07T00:15:43.913Z,1126.00
2024-02-07T00:16:43.961Z,1138.00
2024-02-07T00:17:43.970Z,1131.00
2024-02-07T00:18:43.969Z,1135.00
2024-02-07T00:19:44.157Z,1132.00
2024-02-07T00:20:43.990Z,1131.00
2024-02-07T00:21:43.957Z,1133.00
2024-02-07T00:22:43.964Z,1138.00
2024-02-07T00:23:43.936Z,1141.00
2024-02-07T00:24:43.928Z,1133.00
2024-02-07T00:25:43.950Z,1140.00
2024-02-07T00:26:43.905Z,1148.00
2024-02-07T00:27:43.904Z,1158.00
2024-02-07T00:28:43.951Z,1147.00
2024-02-07T00:29:43.947Z,1156.00
2024-02-07T00:30:43.993Z,1155.00
2024-02-07T00:31:44.089Z,1149.00
2024-02-07T00:32:44.047Z,1158.00
2024-02-07T00:33:44.011Z,1159.00
2024-02-07T00:34:44.143Z,1153.00
2024-02-07T00:35:44.061Z,1158.00
2024-02-07T00:36:44.005Z,1158.00
2024-02-07T00:37:44.095Z,1163.00
2024-02-07T00:38:43.984Z,1167.00
2024-02-07T00:39:43.990Z,1155.00
2024-02-07T00:40:44.030Z,1164.00
2024-02-07T00:41:43.976Z,1157.00
2024-02-07T00:42:43.959Z,1159.00
2024-02-07T00:43:43.989Z,1146.00
2024-02-07T00:44:43.912Z,1152.00
2024-02-07T00:45:43.904Z,1144.00
2024-02-07T00:46:43.962Z,1154.00
2024-02-07T00:47:43.895Z,1132.00
2024-02-07T00:48:43.971Z,1149.00
2024-02-07T00:49:43.972Z,1148.00
2024-02-07T00:50:43.870Z,1143.00
2024-02-07T00:51:43.882Z,1144.00
2024-02-07T00:52:43.880Z,1141.00
2024-02-07T00:53:43.848Z,1138.00
2024-02-07T00:54:43.852Z,1124.00
2024-02-07T00:55:43.901Z,1120.00
2024-02-07T00:56:43.804Z,1120.00
2024-02-07T00:57:43.788Z,1120.00
2024-02-07T00:58:43.785Z,1123.00
2024-02-07T00:59:43.739Z,1126.00
2024-02-07T01:00:43.735Z,1117.00
2024-02-07T01:01:43.774Z,1124.00
2024-02-07T01:02:43.713Z,1126.00
2024-02-07T01:03:43.687Z,1132.00
2024-02-07T01:04:43.778Z,1144.00
2024-02-07T01:05:43.658Z,1140.00
2024-02-07T01:06:43.558Z,1137.00
2024-02-07T01:07:43.595Z,1130.00
2024-02-07T01:08:43.497Z,1125.00
2024-02-07T01:09:43.459Z,1128.00
2024-02-07T01:10:43.519Z,1134.00
2024-02-07T01:11:43.391Z,1148.00
2024-02-07T01:12:43.349Z,1130.00
2024-02-07T01:13:43.394Z,1143.00
2024-02-07T01:14:43.307Z,1128.00
2024-02-07T01:15:43.273Z,1123.00
2024-02-07T01:16:43.261Z,1136.00
2024-02-07T01:17:43.255Z,1139.00
2024-02-07T01:18:43.224Z,1146.00
2024-02-07T01:19:43.152Z,1139.00
2024-02-07T01:20:43.138Z,1139.00
2024-02-07T01:21:43.103Z,1134.00
2024-02-07T01:22:43.286Z,1150.00
2024-02-07T01:23:43.138Z,1146.00
2024-02-07T01:24:43.087Z,1153.00
2024-02-07T01:26:43.063Z,1139.00
2024-02-07T01:27:43.158Z,1153.00
2024-02-07T01:28:42.978Z,1154.00
2024-02-07T01:29:42.993Z,1147.00
2024-02-07T01:30:42.877Z,1154.00
2024-02-07T01:31:42.917Z,1161.00
2024-02-07T01:32:42.959Z,1160.00
2024-02-07T01:33:42.861Z,1159.00
2024-02-07T01:34:42.903Z,1173.00
2024-02-07T01:35:42.861Z,1158.00
2024-02-07T01:36:42.793Z,1151.00
2024-02-07T01:37:42.772Z,1164.00
2024-02-07T01:38:42.716Z,1169.00
2024-02-07T01:39:42.714Z,1163.00
2024-02-07T01:40:42.706Z,1157.00
2024-02-07T01:41:42.641Z,1153.00
2024-02-07T01:42:42.592Z,1153.00
2024-02-07T01:43:42.621Z,1160.00
2024-02-07T01:44:42.537Z,1153.00
2024-02-07T01:45:42.499Z,1158.00
2024-02-07T01:46:42.483Z,1150.00
2024-02-07T01:47:42.495Z,1160.00
2024-02-07T01:48:42.470Z,1144.00
2024-02-07T01:49:42.390Z,1149.00
2024-02-07T01:50:42.335Z,1151.00
2024-02-07T01:51:42.326Z,1158.00
2024-02-07T01:52:42.305Z,1149.00
2024-02-07T01:53:42.244Z,1149.00
2024-02-07T01:54:42.239Z,1149.00
2024-02-07T01:55:42.208Z,1147.00
2024-02-07T01:56:42.186Z,1147.00
2024-02-07T01:57:42.157Z,1145.00
2024-02-07T01:58:42.128Z,1150.00
2024-02-07T01:59:42.081Z,1145.00
2024-02-07T02:00:42.100Z,1142.00
2024-02-07T02:01:42.073Z,1148.00
2024-02-07T02:02:42.013Z,1138.00
2024-02-07T02:03:42.011Z,1144.00
2024-02-07T02:04:41.969Z,1156.00
2024-02-07T02:05:41.941Z,1142.00
2024-02-07T02:06:41.935Z,1139.00
2024-02-07T02:07:41.892Z,1139.00
2024-02-07T02:08:41.808Z,1133.00
2024-02-07T02:09:41.767Z,1130.00
2024-02-07T02:10:41.777Z,1141.00
2024-02-07T02:11:41.698Z,1140.00
2024-02-07T02:12:41.690Z,1148.00
2024-02-07T02:13:41.734Z,1138.00
2024-02-07T02:14:41.630Z,1140.00
2024-02-07T02:15:41.612Z,1138.00
2024-02-07T02:16:41.676Z,1131.00
2024-02-07T02:17:41.661Z,1133.00
2024-02-07T02:18:41.545Z,1140.00
2024-02-07T02:19:41.593Z,1137.00
2024-02-07T02:20:41.710Z,1137.00
2024-02-07T02:21:41.476Z,1126.00
2024-02-07T02:22:41.602Z,1132.00
2024-02-07T02:23:41.413Z,1130.00
2024-02-07T02:24:41.376Z,1128.00
2024-02-07T02:25:41.385Z,1128.00
2024-02-07T02:26:41.308Z,1128.00
2024-02-07T02:27:41.353Z,1123.00
2024-02-07T02:28:41.344Z,1113.00
2024-02-07T02:29:41.267Z,1123.00
2024-02-07T02:30:41.241Z,1112.00
2024-02-07T02:31:41.272Z,1116.00
2024-02-07T02:32:41.222Z,1102.00
2024-02-07T02:33:41.184Z,1107.00
2024-02-07T02:34:41.533Z,1102.00
2024-02-07T02:35:41.107Z,1096.00
2024-02-07T02:36:41.118Z,1090.00
2024-02-07T02:37:41.172Z,1092.00
2024-02-07T02:38:41.100Z,1085.00
2024-02-07T02:39:41.098Z,1098.00
2024-02-07T02:40:41.183Z,1106.00
2024-02-07T02:41:41.062Z,1097.00
2024-02-07T02:42:41.076Z,1094.00
2024-02-07T02:43:41.250Z,1108.00
2024-02-07T02:44:41.167Z,1103.00
2024-02-07T02:45:41.093Z,1108.00
2024-02-07T02:46:41.129Z,1100.00
2024-02-07T02:47:41.050Z,1105.00
2024-02-07T02:48:41.076Z,1091.00
2024-02-07T02:49:41.070Z,1099.00
2024-02-07T02:50:40.955Z,1093.00
2024-02-07T02:51:40.917Z,1094.00
2024-02-07T02:52:41.055Z,1094.00
2024-02-07T02:53:40.872Z,1086.00
2024-02-07T02:54:40.841Z,1095.00
2024-02-07T02:55:40.836Z,1075.00
2024-02-07T02:56:40.776Z,1092.00
2024-02-07T02:57:40.725Z,1090.00
2024-02-07T02:59:40.650Z,1082.00
2024-02-07T03:00:40.634Z,1092.00
2024-02-07T03:02:40.545Z,1080.00
2024-02-07T03:03:40.506Z,1072.00
2024-02-07T03:04:40.585Z,1082.00
2024-02-07T03:05:40.673Z,1072.00
2024-02-07T03:06:40.497Z,1065.00
2024-02-07T03:07:40.539Z,1074.00
2024-02-07T03:08:40.378Z,1074.00
2024-02-07T03:09:40.348Z,1072.00
2024-02-07T03:10:40.490Z,1060.00
2024-02-07T03:11:40.390Z,1066.00
2024-02-07T03:12:40.230Z,1063.00
2024-02-07T03:13:40.226Z,1056.00
2024-02-07T03:14:40.166Z,1071.00
2024-02-07T03:15:40.150Z,1063.00
2024-02-07T03:16:40.117Z,1057.00
2024-02-07T03:17:40.450Z,1060.00
2024-02-07T03:18:40.128Z,1063.00
2024-02-07T03:19:40.066Z,1060.00
2024-02-07T03:20:39.978Z,1063.00
2024-02-07T03:21:39.936Z,1062.00
2024-02-07T03:22:39.989Z,1053.00
2024-02-07T03:23:39.904Z,1051.00
2024-02-07T03:24:39.864Z,1055.00
2024-02-07T03:25:39.874Z,1042.00
2024-02-07T03:26:39.813Z,1047.00
2024-02-07T03:27:39.771Z,1040.00
2024-02-07T03:28:39.777Z,1049.00
2024-02-07T03:29:39.706Z,1048.00
2024-02-07T03:30:39.668Z,1036.00
2024-02-07T03:31:39.663Z,1055.00
2024-02-07T03:32:39.632Z,1041.00
2024-02-07T03:33:39.648Z,1050.00
2024-02-07T03:34:39.630Z,1054.00
2024-02-07T03:35:39.568Z,1049.00
2024-02-07T03:36:39.555Z,1047.00
2024-02-07T03:37:39.588Z,1059.00
2024-02-07T03:38:39.502Z,1053.00
2024-02-07T03:39:39.481Z,1046.00
2024-02-07T03:40:39.488Z,1050.00
2024-02-07T03:41:39.455Z,1055.00
2024-02-07T03:42:39.443Z,1052.00
2024-02-07T03:43:39.489Z,1050.00
2024-02-07T03:44:39.360Z,1051.00
2024-02-07T03:45:39.323Z,1058.00
2024-02-07T03:46:39.367Z,1051.00
2024-02-07T03:47:39.316Z,1051.00
2024-02-07T03:48:40.876Z,1053.00
2024-02-07T03:49:39.376Z,1065.00
2024-02-07T03:50:39.154Z,1065.00
2024-02-07T03:51:39.137Z,1059.00
2024-02-07T03:52:39.130Z,1062.00
2024-02-07T03:53:39.070Z,1073.00
2024-02-07T03:54:39.018Z,1074.00
2024-02-07T03:55:39.207Z,1065.00
2024-02-07T03:56:39.052Z,1060.00
2024-02-07T03:57:38.925Z,1065.00
2024-02-07T03:58:38.949Z,1067.00
2024-02-07T03:59:38.834Z,1079.00
2024-02-07T04:00:38.850Z,1081.00
2024-02-07T04:01:38.923Z,1072.00
2024-02-07T04:02:38.764Z,1076.00
2024-02-07T04:03:38.753Z,1079.00
2024-02-07T04:04:38.740Z,1063.00
2024-02-07T04:05:38.755Z,1070.00
2024-02-07T04:06:38.750Z,1077.00
2024-02-07T04:07:38.814Z,1072.00
2024-02-07T04:08:41.257Z,1071.00
2024-02-07T04:09:38.628Z,1064.00
2024-02-07T04:10:38.556Z,1071.00
2024-02-07T04:11:38.511Z,1066.00
2024-02-07T04:12:38.462Z,1073.00
2024-02-07T04:13:38.499Z,1066.00
2024-02-07T04:14:39.743Z,1068.00
2024-02-07T04:15:38.385Z,1061.00
2024-02-07T04:16:38.425Z,1068.00
2024-02-07T04:17:38.462Z,1062.00
2024-02-07T04:18:38.514Z,1065.00
2024-02-07T04:19:38.530Z,1056.00
2024-02-07T04:20:38.520Z,1057.00
2024-02-07T04:21:38.527Z,1051.00
2024-02-07T04:22:38.571Z,1051.00
2024-02-07T04:23:38.541Z,1061.00
2024-02-07T04:24:38.537Z,1045.00
2024-02-07T04:25:38.564Z,1065.00
2024-02-07T04:26:38.514Z,1057.00
2024-02-07T04:27:38.510Z,1052.00
2024-02-07T04:28:38.530Z,1049.00
2024-02-07T04:29:38.470Z,1053.00
2024-02-07T04:30:38.453Z,1062.00
